createdAt,value
2018-04-01T00:01:06.098Z,4.00
2018-04-01T00:03:32.986Z,3.90
2018-04-01T00:05:59.142Z,3.90
2018-04-01T00:08:25.289Z,3.90
2018-04-01T00:10:51.451Z,3.90
2018-04-01T00:13:17.639Z,3.80
2018-04-01T00:15:43.784Z,3.80
2018-04-01T00:18:10.683Z,3.90
2018-04-01T00:20:36.825Z,3.80
2018-04-01T00:23:02.977Z,3.90
2018-04-01T00:25:29.140Z,3.80
2018-04-01T00:27:55.316Z,3.70
2018-04-01T00:30:21.454Z,3.70
2018-04-01T00:32:47.606Z,3.70
2018-04-01T00:35:14.513Z,3.70
2018-04-01T00:37:40.671Z,3.60
2018-04-01T00:40:07.566Z,3.60
2018-04-01T00:42:33.705Z,3.50
2018-04-01T00:44:59.873Z,3.60
2018-04-01T00:47:26.746Z,3.60
2018-04-01T00:49:52.907Z,3.60
2018-04-01T00:52:19.065Z,3.70
2018-04-01T00:54:45.198Z,3.60
2018-04-01T00:57:11.358Z,3.50
2018-04-01T00:59:37.536Z,3.50
2018-04-01T01:02:03.687Z,3.50
2018-04-01T01:04:29.838Z,3.50
2018-04-01T01:06:55.991Z,3.50
2018-04-01T01:09:22.133Z,3.40
2018-04-01T01:11:48.287Z,3.40
2018-04-01T01:14:14.438Z,3.50
2018-04-01T01:16:41.309Z,3.50
2018-04-01T01:19:07.462Z,3.40
2018-04-01T01:21:33.642Z,3.60
2018-04-01T01:24:00.542Z,3.60
2018-04-01T01:26:26.715Z,3.60
2018-04-01T01:28:53.599Z,3.70
2018-04-01T01:31:19.762Z,3.70
2018-04-01T01:33:45.920Z,3.80
2018-04-01T01:36:12.804Z,3.80
2018-04-01T01:38:38.960Z,3.80
2018-04-01T01:41:05.873Z,4.00
2018-04-01T01:43:32.003Z,3.90
2018-04-01T01:45:58.154Z,4.00
2018-04-01T01:48:24.318Z,4.00
2018-04-01T01:50:51.185Z,4.00
2018-04-01T01:53:17.351Z,4.00
2018-04-01T01:55:43.542Z,4.10
2018-04-01T01:58:09.722Z,4.10
2018-04-01T02:00:35.879Z,4.10
2018-04-01T02:03:02.774Z,4.20
2018-04-01T02:05:28.946Z,4.20
2018-04-01T02:07:55.833Z,4.30
2018-04-01T02:10:21.973Z,4.30
2018-04-01T02:12:48.150Z,4.30
2018-04-01T02:15:15.116Z,4.20
2018-04-01T02:17:41.263Z,4.10
2018-04-01T02:20:07.421Z,4.20
2018-04-01T02:22:33.666Z,4.10
2018-04-01T02:24:59.819Z,4.10
2018-04-01T02:27:26.721Z,4.10
2018-04-01T02:29:52.916Z,4.00
2018-04-01T02:32:19.088Z,4.10
2018-04-01T02:34:45.252Z,4.10
2018-04-01T02:37:12.179Z,4.10
2018-04-01T02:39:39.062Z,4.20
2018-04-01T02:42:05.218Z,4.20
2018-04-01T02:44:31.367Z,4.30
2018-04-01T02:46:58.244Z,4.30
2018-04-01T02:49:25.141Z,4.30
2018-04-01T02:51:51.331Z,4.20
2018-04-01T02:54:17.463Z,4.30
2018-04-01T02:56:43.677Z,4.30
2018-04-01T02:59:09.810Z,4.20
2018-04-01T03:01:35.950Z,4.20
2018-04-01T03:04:02.119Z,4.20
2018-04-01T03:06:28.269Z,4.20
2018-04-01T03:08:54.397Z,4.10
2018-04-01T03:11:20.558Z,4.00
2018-04-01T03:13:46.716Z,3.90
2018-04-01T03:16:12.855Z,3.80
2018-04-01T03:18:39.011Z,3.70
2018-04-01T03:21:05.177Z,3.60
2018-04-01T03:23:31.320Z,3.60
2018-04-01T03:25:57.505Z,3.70
2018-04-01T03:28:24.407Z,3.70
2018-04-01T03:30:50.535Z,3.70
2018-04-01T03:33:16.687Z,3.90
2018-04-01T03:35:42.851Z,3.90
2018-04-01T03:38:08.982Z,4.00
2018-04-01T03:40:35.137Z,4.00
2018-04-01T03:43:01.295Z,4.10
2018-04-01T03:45:27.434Z,4.00
2018-04-01T03:47:53.616Z,4.00
2018-04-01T03:50:19.752Z,3.90
2018-04-01T03:52:45.906Z,3.80
2018-04-01T03:55:12.055Z,3.80
2018-04-01T03:57:38.955Z,3.70
2018-04-01T04:00:05.121Z,3.70
2018-04-01T04:02:31.352Z,3.70
2018-04-01T04:04:57.539Z,3.50
2018-04-01T04:07:23.748Z,3.50
2018-04-01T04:09:49.910Z,3.50
2018-04-01T04:12:16.050Z,3.50
2018-04-01T04:14:42.211Z,3.50
2018-04-01T04:17:09.107Z,3.80
2018-04-01T04:19:35.238Z,3.80
2018-04-01T04:22:01.411Z,3.90
2018-04-01T04:24:28.303Z,3.90
2018-04-01T04:26:54.498Z,3.90
2018-04-01T04:29:20.651Z,3.90
2018-04-01T04:31:46.808Z,3.90
2018-04-01T04:34:12.992Z,4.00
2018-04-01T04:36:39.155Z,3.90
2018-04-01T04:39:05.313Z,4.00
2018-04-01T04:41:31.451Z,4.00
2018-04-01T04:43:58.346Z,4.10
2018-04-01T04:46:24.515Z,4.00
2018-04-01T04:48:50.658Z,4.00
2018-04-01T04:51:17.573Z,4.10
2018-04-01T04:53:43.698Z,4.00
2018-04-01T04:56:09.849Z,4.10
2018-04-01T04:58:36.005Z,4.20
2018-04-01T05:01:02.174Z,4.20
2018-04-01T05:03:28.342Z,4.20
2018-04-01T05:05:55.245Z,4.20
2018-04-01T05:08:21.454Z,4.20
2018-04-01T05:10:47.597Z,4.20
2018-04-01T05:13:13.770Z,4.30
2018-04-01T05:15:40.654Z,4.40
2018-04-01T05:18:06.806Z,4.30
2018-04-01T05:20:32.967Z,4.30
2018-04-01T05:22:59.841Z,4.40
2018-04-01T05:25:25.998Z,4.30
2018-04-01T05:27:52.155Z,4.30
2018-04-01T05:30:18.373Z,4.40
2018-04-01T05:32:44.692Z,4.50
2018-04-01T05:35:10.860Z,4.50
2018-04-01T05:37:37.779Z,4.50
2018-04-01T05:40:03.942Z,4.50
2018-04-01T05:42:30.848Z,4.60
2018-04-01T05:44:57.020Z,4.60
2018-04-01T05:47:23.964Z,4.60
2018-04-01T05:49:50.130Z,4.60
2018-04-01T05:52:16.284Z,4.60
2018-04-01T05:54:42.427Z,4.70
2018-04-01T05:57:08.594Z,4.80
2018-04-01T05:59:34.718Z,4.80
2018-04-01T06:02:00.887Z,4.90
2018-04-01T06:04:27.014Z,5.00
2018-04-01T06:06:53.185Z,5.00
2018-04-01T06:09:20.069Z,5.10
2018-04-01T06:11:46.263Z,5.00
2018-04-01T06:14:13.138Z,5.10
2018-04-01T06:16:39.293Z,5.00
2018-04-01T06:19:05.445Z,5.10
2018-04-01T06:21:31.595Z,5.20
2018-04-01T06:23:58.473Z,5.20
2018-04-01T06:26:24.631Z,5.20
2018-04-01T06:28:50.762Z,5.20
2018-04-01T06:31:16.921Z,5.40
2018-04-01T06:33:43.789Z,5.80
2018-04-01T06:36:09.947Z,5.70
2018-04-01T06:38:36.074Z,5.80
2018-04-01T06:41:02.214Z,5.80
2018-04-01T06:43:28.387Z,5.70
2018-04-01T06:45:54.531Z,5.70
2018-04-01T06:48:20.714Z,5.70
2018-04-01T06:50:47.652Z,5.70
2018-04-01T06:53:13.790Z,5.60
2018-04-01T06:55:39.918Z,5.70
2018-04-01T06:58:06.077Z,5.80
2018-04-01T07:00:32.205Z,5.80
2018-04-01T07:02:58.358Z,5.80
2018-04-01T07:05:24.528Z,5.80
2018-04-01T07:07:50.659Z,5.90
2018-04-01T07:10:16.814Z,5.80
2018-04-01T07:12:42.946Z,5.70
2018-04-01T07:15:09.142Z,5.60
2018-04-01T07:17:35.306Z,5.60
2018-04-01T07:20:01.480Z,5.50
2018-04-01T07:22:27.635Z,5.60
2018-04-01T07:24:54.504Z,6.10
2018-04-01T07:27:20.670Z,6.10
2018-04-01T07:29:46.862Z,6.40
2018-04-01T07:32:13.736Z,6.30
2018-04-01T07:34:39.871Z,6.20
2018-04-01T07:37:06.027Z,6.20
2018-04-01T07:39:32.163Z,6.10
2018-04-01T07:41:58.328Z,6.00
2018-04-01T07:44:24.467Z,6.00
2018-04-01T07:46:50.626Z,5.80
2018-04-01T07:49:16.763Z,5.70
2018-04-01T07:51:42.895Z,5.60
2018-04-01T07:54:09.066Z,5.60
2018-04-01T07:56:35.200Z,5.50
2018-04-01T07:59:01.359Z,5.50
2018-04-01T08:01:27.498Z,5.50
2018-04-01T08:03:54.406Z,5.50
2018-04-01T08:06:20.543Z,5.50
2018-04-01T08:08:46.710Z,5.60
2018-04-01T08:11:12.848Z,5.70
2018-04-01T08:13:39.747Z,5.90
2018-04-01T08:16:05.883Z,5.90
2018-04-01T08:18:32.062Z,5.90
2018-04-01T08:20:58.935Z,5.90
2018-04-01T08:23:25.164Z,5.90
2018-04-01T08:25:51.351Z,6.10
2018-04-01T08:28:18.234Z,6.30
2018-04-01T08:30:44.406Z,6.30
2018-04-01T08:33:10.587Z,6.50
2018-04-01T08:35:36.745Z,6.50
2018-04-01T08:38:02.870Z,6.50
2018-04-01T08:40:29.067Z,6.40
2018-04-01T08:42:55.206Z,6.40
2018-04-01T08:45:21.366Z,6.30
2018-04-01T08:47:47.519Z,6.30
2018-04-01T08:50:13.679Z,6.20
2018-04-01T08:52:39.821Z,6.20
2018-04-01T08:55:05.991Z,6.10
2018-04-01T08:57:32.134Z,6.00
2018-04-01T08:59:59.038Z,5.90
2018-04-01T09:02:25.174Z,5.80
2018-04-01T09:04:51.360Z,5.80
2018-04-01T09:07:17.516Z,5.60
2018-04-01T09:09:43.656Z,5.50
2018-04-01T09:12:09.861Z,5.40
2018-04-01T09:14:36.055Z,5.30
2018-04-01T09:17:03.002Z,5.70
2018-04-01T09:19:29.949Z,6.00
2018-04-01T09:21:56.873Z,6.10
2018-04-01T09:24:23.014Z,6.10
2018-04-01T09:26:49.213Z,6.20
2018-04-01T09:29:15.388Z,6.00
2018-04-01T09:31:42.279Z,6.40
2018-04-01T09:34:08.454Z,6.40
2018-04-01T09:36:35.323Z,6.30
2018-04-01T09:39:01.483Z,6.20
2018-04-01T09:41:27.618Z,6.30
2018-04-01T09:43:53.765Z,6.50
2018-04-01T09:46:19.915Z,6.60
2018-04-01T09:48:46.816Z,6.70
2018-04-01T09:51:12.949Z,6.70
2018-04-01T09:53:39.123Z,7.20
2018-04-01T09:56:05.994Z,7.50
2018-04-01T09:58:32.162Z,7.40
2018-04-01T10:01:00.462Z,7.60
2018-04-01T10:03:27.627Z,8.00
2018-04-01T10:05:54.778Z,8.70
2018-04-01T10:08:21.964Z,8.30
2018-04-01T10:10:48.345Z,8.30
2018-04-01T10:13:15.511Z,8.30
2018-04-01T10:15:42.632Z,8.40
2018-04-01T10:18:09.048Z,8.30
2018-04-01T10:20:35.462Z,8.40
2018-04-01T10:23:01.866Z,8.50
2018-04-01T10:25:29.006Z,8.60
2018-04-01T10:27:55.438Z,8.50
2018-04-01T10:30:22.627Z,8.20
2018-04-01T10:32:49.046Z,8.20
2018-04-01T10:35:16.193Z,8.10
2018-04-01T10:37:43.319Z,8.10
2018-04-01T10:40:09.742Z,8.10
2018-04-01T10:42:36.134Z,8.20
2018-04-01T10:45:02.591Z,8.20
2018-04-01T10:47:29.033Z,8.10
2018-04-01T10:49:55.454Z,8.20
2018-04-01T10:52:21.855Z,8.10
2018-04-01T10:54:48.727Z,7.60
2018-04-01T10:57:14.934Z,7.60
2018-04-01T10:59:41.075Z,7.60
2018-04-01T11:02:07.237Z,7.50
2018-04-01T11:04:33.379Z,7.50
2018-04-01T11:06:59.551Z,7.40
2018-04-01T11:09:25.696Z,7.50
2018-04-01T11:11:51.853Z,7.40
2018-04-01T11:14:17.982Z,7.00
2018-04-01T11:16:44.129Z,6.40
2018-04-01T11:19:10.300Z,6.00
2018-04-01T11:21:36.462Z,5.80
2018-04-01T11:24:02.602Z,6.00
2018-04-01T11:26:28.743Z,6.70
2018-04-01T11:28:54.903Z,7.50
2018-04-01T11:31:21.040Z,8.20
2018-04-01T11:33:47.203Z,8.80
2018-04-01T11:36:13.360Z,8.90
2018-04-01T11:38:40.230Z,8.80
2018-04-01T11:41:06.401Z,8.70
2018-04-01T11:43:32.542Z,8.60
2018-04-01T11:45:58.695Z,8.60
2018-04-01T11:48:25.562Z,8.60
2018-04-01T11:50:51.803Z,8.50
2018-04-01T11:53:18.015Z,8.70
2018-04-01T11:55:44.182Z,8.70
2018-04-01T11:58:10.324Z,8.80
2018-04-01T12:00:36.531Z,8.70
2018-04-01T12:03:02.678Z,8.40
2018-04-01T12:05:28.806Z,8.30
2018-04-01T12:07:54.965Z,8.20
2018-04-01T12:10:21.844Z,8.30
2018-04-01T12:12:48.002Z,8.30
2018-04-01T12:15:14.136Z,8.00
2018-04-01T12:17:40.291Z,7.60
2018-04-01T12:20:06.464Z,7.70
2018-04-01T12:22:32.618Z,7.80
2018-04-01T12:24:58.765Z,8.10
2018-04-01T12:27:24.906Z,8.30
2018-04-01T12:29:51.802Z,8.40
2018-04-01T12:32:17.978Z,8.40
2018-04-01T12:34:44.891Z,8.30
2018-04-01T12:37:11.023Z,8.20
2018-04-01T12:39:37.185Z,7.90
2018-04-01T12:42:04.065Z,7.30
2018-04-01T12:44:30.227Z,7.30
2018-04-01T12:46:56.396Z,6.80
2018-04-01T12:49:22.549Z,6.20
2018-04-01T12:51:48.710Z,6.00
2018-04-01T12:54:14.886Z,5.30
2018-04-01T12:56:41.775Z,4.50
2018-04-01T12:59:07.872Z,4.50
2018-04-01T13:01:33.984Z,4.50
2018-04-01T13:04:00.818Z,5.00
2018-04-01T13:06:27.681Z,5.00
2018-04-01T13:08:53.776Z,4.90
2018-04-01T13:11:19.904Z,5.20
2018-04-01T13:13:45.999Z,5.60
2018-04-01T13:16:12.108Z,6.50
2018-04-01T13:18:38.220Z,7.20
2018-04-01T13:21:04.337Z,7.70
2018-04-01T13:23:31.231Z,7.60
2018-04-01T13:25:57.327Z,7.60
2018-04-01T13:28:23.442Z,7.50
2018-04-01T13:30:49.537Z,7.40
2018-04-01T13:33:15.697Z,7.70
2018-04-01T13:35:41.780Z,7.60
2018-04-01T13:38:07.909Z,7.50
2018-04-01T13:40:34.009Z,7.50
2018-04-01T13:43:00.132Z,7.20
2018-04-01T13:45:26.222Z,7.10
2018-04-01T13:47:53.079Z,7.20
2018-04-01T13:50:19.234Z,7.10
2018-04-01T13:52:45.337Z,7.30
2018-04-01T13:55:11.435Z,7.60
2018-04-01T13:57:37.557Z,7.80
2018-04-01T14:00:04.407Z,7.60
2018-04-01T14:02:30.501Z,7.60
2018-04-01T14:04:56.676Z,7.80
2018-04-01T14:07:23.575Z,8.30
2018-04-01T14:09:49.746Z,8.30
2018-04-01T14:12:16.636Z,8.20
2018-04-01T14:14:42.818Z,8.10
2018-04-01T14:17:09.722Z,7.50
2018-04-01T14:19:35.889Z,7.50
2018-04-01T14:22:02.823Z,7.00
2018-04-01T14:24:28.971Z,6.90
2018-04-01T14:26:55.909Z,5.50
2018-04-01T14:29:22.799Z,4.20
2018-04-01T14:31:48.983Z,4.20
2018-04-01T14:34:15.855Z,3.60
2018-04-01T14:36:42.031Z,3.50
2018-04-01T14:39:08.186Z,3.70
2018-04-01T14:41:35.128Z,4.00
2018-04-01T14:44:01.289Z,4.00
2018-04-01T14:46:27.489Z,4.20
2018-04-01T14:48:54.379Z,4.70
2018-04-01T14:51:20.546Z,4.60
2018-04-01T14:53:47.456Z,5.30
2018-04-01T14:56:13.639Z,5.20
2018-04-01T14:58:40.519Z,5.50
2018-04-01T15:01:06.686Z,5.40
2018-04-01T15:03:32.847Z,5.50
2018-04-01T15:05:59.762Z,5.60
2018-04-01T15:08:25.923Z,5.50
2018-04-01T15:10:52.079Z,5.50
2018-04-01T15:13:18.251Z,5.40
2018-04-01T15:15:44.434Z,5.50
2018-04-01T15:18:10.611Z,5.60
2018-04-01T15:20:36.743Z,5.80
2018-04-01T15:23:02.953Z,6.10
2018-04-01T15:25:29.116Z,6.30
2018-04-01T15:27:56.030Z,6.80
2018-04-01T15:30:22.169Z,6.80
2018-04-01T15:32:48.342Z,6.70
2018-04-01T15:35:14.519Z,6.60
2018-04-01T15:37:40.684Z,6.30
2018-04-01T15:40:07.586Z,6.00
2018-04-01T15:42:33.726Z,6.00
2018-04-01T15:45:00.841Z,6.00
2018-04-01T15:47:27.027Z,6.10
2018-04-01T15:49:53.953Z,6.50
2018-04-01T15:52:20.179Z,6.50
2018-04-01T15:54:46.319Z,6.60
2018-04-01T15:57:13.223Z,6.60
2018-04-01T15:59:39.458Z,6.60
2018-04-01T16:02:05.631Z,6.50
2018-04-01T16:04:32.541Z,6.40
2018-04-01T16:06:58.683Z,6.40
2018-04-01T16:09:24.847Z,6.30
2018-04-01T16:11:58.583Z,6.40
2018-04-01T16:14:24.750Z,6.30
2018-04-01T16:16:50.894Z,6.20
2018-04-01T16:19:17.135Z,6.20
2018-04-01T16:21:43.284Z,6.20
2018-04-01T16:24:09.484Z,6.10
2018-04-01T16:26:36.717Z,6.00
2018-04-01T16:29:03.225Z,6.00
2018-04-01T16:31:29.840Z,5.90
2018-04-01T16:33:56.118Z,5.70
2018-04-01T16:36:22.300Z,5.60
2018-04-01T16:38:48.459Z,5.60
2018-04-01T16:41:14.680Z,5.60
2018-04-01T16:43:40.833Z,5.60
2018-04-01T16:46:07.011Z,5.80
2018-04-01T16:48:33.170Z,5.90
2018-04-01T16:50:59.417Z,5.90
2018-04-01T16:53:25.607Z,6.10
2018-04-01T16:55:51.875Z,6.00
2018-04-01T16:58:18.064Z,5.80
2018-04-01T17:00:44.276Z,5.60
2018-04-01T17:03:18.291Z,5.40
2018-04-01T17:05:45.180Z,5.30
2018-04-01T17:08:13.072Z,5.30
2018-04-01T17:10:39.239Z,5.30
2018-04-01T17:13:05.451Z,5.30
2018-04-01T17:15:32.438Z,5.20
2018-04-01T17:17:58.595Z,5.20
2018-04-01T17:20:24.730Z,5.20
2018-04-01T17:22:50.919Z,5.20
2018-04-01T17:25:17.139Z,5.10
2018-04-01T17:27:43.803Z,5.10
2018-04-01T17:30:09.994Z,5.30
2018-04-01T17:32:36.880Z,5.00
2018-04-01T17:35:03.418Z,4.90
2018-04-01T17:37:29.609Z,4.80
2018-04-01T17:39:55.800Z,4.80
2018-04-01T17:42:21.958Z,4.80
2018-04-01T17:44:48.863Z,4.80
2018-04-01T17:47:15.022Z,4.80
2018-04-01T17:49:41.992Z,4.80
2018-04-01T17:52:08.871Z,4.80
2018-04-01T17:54:35.026Z,4.70
2018-04-01T17:57:01.214Z,4.80
2018-04-01T17:59:27.400Z,4.80
2018-04-01T18:01:54.327Z,4.80
2018-04-01T18:04:20.494Z,4.70
2018-04-01T18:06:47.379Z,4.70
2018-04-01T18:09:13.579Z,4.60
2018-04-01T18:11:39.744Z,4.70
2018-04-01T18:14:05.911Z,4.70
2018-04-01T18:16:32.811Z,4.80
2018-04-01T18:18:59.020Z,4.70
2018-04-01T18:21:25.286Z,4.80
2018-04-01T18:23:51.467Z,4.90
2018-04-01T18:26:17.600Z,4.90
2018-04-01T18:28:43.751Z,4.90
2018-04-01T18:31:09.899Z,4.80
2018-04-01T18:33:36.083Z,4.90
2018-04-01T18:36:02.271Z,4.90
2018-04-01T18:38:29.155Z,4.90
2018-04-01T18:40:55.332Z,4.90
2018-04-01T18:43:21.487Z,5.00
2018-04-01T18:45:48.451Z,5.10
2018-04-01T18:48:15.335Z,5.10
2018-04-01T18:50:41.516Z,5.00
2018-04-01T18:53:07.697Z,5.00
2018-04-01T18:55:33.869Z,5.10
2018-04-01T18:58:00.748Z,5.20
2018-04-01T19:00:26.898Z,5.20
2018-04-01T19:02:53.108Z,5.20
2018-04-01T19:05:19.267Z,5.30
2018-04-01T19:07:45.431Z,5.20
2018-04-01T19:10:12.375Z,5.30
2018-04-01T19:12:38.561Z,5.20
2018-04-01T19:15:04.719Z,5.30
2018-04-01T19:17:31.164Z,5.30
2018-04-01T19:19:58.326Z,5.20
2018-04-01T19:22:25.562Z,5.20
2018-04-01T19:24:52.067Z,5.10
2018-04-01T19:27:18.488Z,5.10
2018-04-01T19:29:44.916Z,5.10
2018-04-01T19:32:11.419Z,5.00
2018-04-01T19:34:38.611Z,4.90
2018-04-01T19:37:05.026Z,4.90
2018-04-01T19:39:31.459Z,4.80
2018-04-01T19:41:57.903Z,4.70
2018-04-01T19:44:24.324Z,4.70
2018-04-01T19:46:50.760Z,4.60
2018-04-01T19:49:17.199Z,4.60
2018-04-01T19:51:43.729Z,4.60
2018-04-01T19:54:10.110Z,4.60
2018-04-01T19:56:36.525Z,4.60
2018-04-01T19:59:02.923Z,4.60
2018-04-01T20:01:30.062Z,4.60
2018-04-01T20:03:57.208Z,4.60
2018-04-01T20:06:23.598Z,4.50
2018-04-01T20:08:49.995Z,4.50
2018-04-01T20:11:17.115Z,4.60
2018-04-01T20:13:43.541Z,4.50
2018-04-01T20:16:09.931Z,4.60
2018-04-01T20:18:36.358Z,4.60
2018-04-01T20:21:02.770Z,4.50
2018-04-01T20:23:29.891Z,4.50
2018-04-01T20:25:56.332Z,4.50
2018-04-01T20:28:22.744Z,4.60
2018-04-01T20:30:49.169Z,4.60
2018-04-01T20:33:15.553Z,4.60
2018-04-01T20:35:42.742Z,4.70
2018-04-01T20:38:09.131Z,4.60
2018-04-01T20:40:35.575Z,4.70
2018-04-01T20:43:02.044Z,4.70
2018-04-01T20:45:28.564Z,4.70
2018-04-01T20:47:55.940Z,4.60
2018-04-01T20:50:22.378Z,4.60
2018-04-01T20:52:48.841Z,4.60
2018-04-01T20:55:15.333Z,4.60
2018-04-01T20:57:42.521Z,4.70
2018-04-01T21:00:08.940Z,4.60
2018-04-01T21:02:35.346Z,4.60
2018-04-01T21:05:02.503Z,4.50
2018-04-01T21:07:28.939Z,4.50
2018-04-01T21:09:55.320Z,4.50
2018-04-01T21:12:21.765Z,4.50
2018-04-01T21:14:48.166Z,4.50
2018-04-01T21:17:14.545Z,4.50
2018-04-01T21:19:40.944Z,4.50
2018-04-01T21:22:07.325Z,4.50
2018-04-01T21:24:34.482Z,4.40
2018-04-01T21:27:01.617Z,4.50
2018-04-01T21:29:28.758Z,4.50
2018-04-01T21:31:55.175Z,4.40
2018-04-01T21:34:21.611Z,4.50
2018-04-01T21:36:48.029Z,4.50
2018-04-01T21:39:14.410Z,4.50
2018-04-01T21:41:41.554Z,4.60
2018-04-01T21:44:07.938Z,4.50
2018-04-01T21:46:34.367Z,4.60
2018-04-01T21:49:01.546Z,4.60
2018-04-01T21:51:27.924Z,4.60
2018-04-01T21:53:55.055Z,4.60
2018-04-01T21:56:21.464Z,4.50
2018-04-01T21:58:47.862Z,4.60
2018-04-01T22:01:14.284Z,4.60
2018-04-01T22:03:41.461Z,4.60
2018-04-01T22:06:07.847Z,4.50
2018-04-01T22:08:34.254Z,4.60
2018-04-01T22:11:00.641Z,4.60
2018-04-01T22:13:27.086Z,4.60
2018-04-01T22:15:53.482Z,4.60
2018-04-01T22:18:19.872Z,4.60
2018-04-01T22:20:46.283Z,4.60
2018-04-01T22:23:12.714Z,4.60
2018-04-01T22:25:39.218Z,4.60
2018-04-01T22:28:05.616Z,4.60
2018-04-01T22:30:32.021Z,4.60
2018-04-01T22:32:58.428Z,4.50
2018-04-01T22:35:24.833Z,4.40
2018-04-01T22:37:51.243Z,4.40
2018-04-01T22:40:17.662Z,4.30
2018-04-01T22:42:44.055Z,4.20
2018-04-01T22:45:10.477Z,4.20
2018-04-01T22:47:36.906Z,4.20
2018-04-01T22:50:03.382Z,4.20
2018-04-01T22:52:30.525Z,4.30
2018-04-01T22:54:56.909Z,4.20
2018-04-01T22:57:23.322Z,4.30
2018-04-01T22:59:49.728Z,4.40
2018-04-01T23:02:16.857Z,4.20
2018-04-01T23:04:43.239Z,4.20
2018-04-01T23:07:09.684Z,4.00
2018-04-01T23:09:36.065Z,3.80
2018-04-01T23:12:02.475Z,3.60
2018-04-01T23:14:28.846Z,3.60
2018-04-01T23:16:55.999Z,3.50
2018-04-01T23:19:23.123Z,3.40
2018-04-01T23:21:49.519Z,3.40
2018-04-01T23:24:15.897Z,3.40
2018-04-01T23:26:42.319Z,3.40
2018-04-01T23:29:08.705Z,3.50
2018-04-01T23:31:35.110Z,3.50
2018-04-01T23:34:01.500Z,3.40
2018-04-01T23:36:27.912Z,3.40
2018-04-01T23:38:54.325Z,3.40
2018-04-01T23:41:21.466Z,3.20
2018-04-01T23:43:47.863Z,3.10
2018-04-01T23:46:14.286Z,3.00
2018-04-01T23:48:40.685Z,3.00
2018-04-01T23:51:07.929Z,2.80
2018-04-01T23:53:35.350Z,2.70
2018-04-01T23:56:01.748Z,2.70
2018-04-01T23:58:28.122Z,2.70
